sensor_id;sensor_type;location;lat;lon;timestamp;temperature;humidity
51873;DHT22;52863;52.504;13.480;2022-12-07T00:01:20;3.30;99.90
51873;DHT22;52863;52.504;13.480;2022-12-07T00:06:17;3.40;99.90
51873;DHT22;52863;52.504;13.480;2022-12-07T00:08:45;3.70;99.90
51873;DHT22;52863;52.504;13.480;2022-12-07T00:11:13;3.50;99.90
51873;DHT22;52863;52.504;13.480;2022-12-07T00:13:41;3.30;99.90
51873;DHT22;52863;52.504;13.480;2022-12-07T00:16:09;3.30;99.90
51873;DHT22;52863;52.504;13.480;2022-12-07T00:18:37;3.30;99.90
51873;DHT22;52863;52.504;13.480;2022-12-07T00:21:06;3.30;99.90
51873;DHT22;52863;52.504;13.480;2022-12-07T00:23:34;3.30;99.90
51873;DHT22;52863;52.504;13.480;2022-12-07T00:26:05;3.40;99.90
51873;DHT22;52863;52.504;13.480;2022-12-07T00:31:03;3.40;99.90
51873;DHT22;52863;52.504;13.480;2022-12-07T00:35:58;3.20;99.90
51873;DHT22;52863;52.504;13.480;2022-12-07T00:38:28;2.70;99.90
51873;DHT22;52863;52.504;13.480;2022-12-07T00:40:56;3.20;99.90
51873;DHT22;52863;52.504;13.480;2022-12-07T00:50:44;3.00;99.90
51873;DHT22;52863;52.504;13.480;2022-12-07T00:53:11;3.10;99.90
51873;DHT22;52863;52.504;13.480;2022-12-07T00:55:39;2.90;99.90
51873;DHT22;52863;52.504;13.480;2022-12-07T01:12:49;2.70;99.90
51873;DHT22;52863;52.504;13.480;2022-12-07T01:15:15;2.60;99.90
51873;DHT22;52863;52.504;13.480;2022-12-07T01:17:42;2.60;99.90
51873;DHT22;52863;52.504;13.480;2022-12-07T01:20:09;2.60;99.90
51873;DHT22;52863;52.504;13.480;2022-12-07T01:25:04;2.30;99.90
51873;DHT22;52863;52.504;13.480;2022-12-07T01:27:32;2.40;99.90
51873;DHT22;52863;52.504;13.480;2022-12-07T01:29:59;2.40;99.90
51873;DHT22;52863;52.504;13.480;2022-12-07T01:39:48;2.40;99.90
51873;DHT22;52863;52.504;13.480;2022-12-07T01:42:15;2.60;99.90
51873;DHT22;52863;52.504;13.480;2022-12-07T01:47:52;2.50;99.90
51873;DHT22;52863;52.504;13.480;2022-12-07T01:50:20;2.50;99.90
51873;DHT22;52863;52.504;13.480;2022-12-07T01:52:49;2.50;99.90
51873;DHT22;52863;52.504;13.480;2022-12-07T01:57:47;2.50;99.90
51873;DHT22;52863;52.504;13.480;2022-12-07T02:00:15;4.30;99.90
51873;DHT22;52863;52.504;13.480;2022-12-07T02:02:45;2.50;99.90
51873;DHT22;52863;52.504;13.480;2022-12-07T02:05:15;2.60;99.90
51873;DHT22;52863;52.504;13.480;2022-12-07T02:10:14;2.60;99.90
51873;DHT22;52863;52.504;13.480;2022-12-07T02:15:08;3.00;99.90
51873;DHT22;52863;52.504;13.480;2022-12-07T02:17:40;2.60;99.90
51873;DHT22;52863;52.504;13.480;2022-12-07T02:20:26;2.50;99.90
51873;DHT22;52863;52.504;13.480;2022-12-07T02:23:18;2.70;99.90
51873;DHT22;52863;52.504;13.480;2022-12-07T02:26:02;2.50;99.90
51873;DHT22;52863;52.504;13.480;2022-12-07T02:28:35;2.50;99.90
51873;DHT22;52863;52.504;13.480;2022-12-07T02:31:06;2.40;99.90
51873;DHT22;52863;52.504;13.480;2022-12-07T02:33:37;2.40;99.90
51873;DHT22;52863;52.504;13.480;2022-12-07T02:36:11;2.40;99.90
51873;DHT22;52863;52.504;13.480;2022-12-07T02:38:43;2.40;99.90
51873;DHT22;52863;52.504;13.480;2022-12-07T02:41:13;2.30;99.90
51873;DHT22;52863;52.504;13.480;2022-12-07T02:43:47;2.30;99.90
51873;DHT22;52863;52.504;13.480;2022-12-07T02:46:18;2.30;99.90
51873;DHT22;52863;52.504;13.480;2022-12-07T02:48:47;2.30;99.90
51873;DHT22;52863;52.504;13.480;2022-12-07T02:51:17;2.20;99.90
51873;DHT22;52863;52.504;13.480;2022-12-07T02:56:20;2.60;99.90
51873;DHT22;52863;52.504;13.480;2022-12-07T02:59:02;2.10;99.90
51873;DHT22;52863;52.504;13.480;2022-12-07T03:01:40;5.00;99.90
51873;DHT22;52863;52.504;13.480;2022-12-07T03:04:19;2.00;99.90
51873;DHT22;52863;52.504;13.480;2022-12-07T03:06:53;2.00;99.90
51873;DHT22;52863;52.504;13.480;2022-12-07T03:09:28;2.10;99.90
51873;DHT22;52863;52.504;13.480;2022-12-07T03:12:03;2.10;99.90
51873;DHT22;52863;52.504;13.480;2022-12-07T03:14:37;2.00;99.90
51873;DHT22;52863;52.504;13.480;2022-12-07T03:17:09;2.10;99.90
51873;DHT22;52863;52.504;13.480;2022-12-07T03:19:39;2.10;99.90
51873;DHT22;52863;52.504;13.480;2022-12-07T03:22:09;2.10;99.90
51873;DHT22;52863;52.504;13.480;2022-12-07T03:24:40;2.20;99.90
51873;DHT22;52863;52.504;13.480;2022-12-07T03:27:14;2.10;99.90
51873;DHT22;52863;52.504;13.480;2022-12-07T03:29:46;3.60;99.90
51873;DHT22;52863;52.504;13.480;2022-12-07T03:32:16;2.20;99.90
51873;DHT22;52863;52.504;13.480;2022-12-07T03:34:52;2.00;99.90
51873;DHT22;52863;52.504;13.480;2022-12-07T03:37:26;2.10;99.90
51873;DHT22;52863;52.504;13.480;2022-12-07T03:40:01;2.20;99.90
51873;DHT22;52863;52.504;13.480;2022-12-07T03:47:34;2.20;99.90
51873;DHT22;52863;52.504;13.480;2022-12-07T03:50:09;2.20;99.90
51873;DHT22;52863;52.504;13.480;2022-12-07T03:52:43;2.20;99.90
51873;DHT22;52863;52.504;13.480;2022-12-07T03:57:47;2.10;99.90
51873;DHT22;52863;52.504;13.480;2022-12-07T04:00:18;2.20;99.90
51873;DHT22;52863;52.504;13.480;2022-12-07T04:25:32;2.20;99.90
51873;DHT22;52863;52.504;13.480;2022-12-07T04:42:59;2.10;99.90
51873;DHT22;52863;52.504;13.480;2022-12-07T04:50:35;2.20;99.90
51873;DHT22;52863;52.504;13.480;2022-12-07T06:34:11;3.00;99.90
51873;DHT22;52863;52.504;13.480;2022-12-07T08:10:19;3.90;99.90
51873;DHT22;52863;52.504;13.480;2022-12-07T08:18:51;3.90;99.90
51873;DHT22;52863;52.504;13.480;2022-12-07T08:45:09;4.20;99.90
51873;DHT22;52863;52.504;13.480;2022-12-07T08:47:48;4.30;99.90
51873;DHT22;52863;52.504;13.480;2022-12-07T09:08:44;4.40;99.90
51873;DHT22;52863;52.504;13.480;2022-12-07T09:37:51;4.40;99.90
51873;DHT22;52863;52.504;13.480;2022-12-07T09:40:20;4.40;99.90
51873;DHT22;52863;52.504;13.480;2022-12-07T09:42:49;1.70;99.90
51873;DHT22;52863;52.504;13.480;2022-12-07T09:45:20;4.30;99.90
51873;DHT22;52863;52.504;13.480;2022-12-07T09:50:16;4.20;99.90
51873;DHT22;52863;52.504;13.480;2022-12-07T09:52:45;4.20;99.90
51873;DHT22;52863;52.504;13.480;2022-12-07T09:55:16;4.20;99.90
51873;DHT22;52863;52.504;13.480;2022-12-07T10:00:13;4.20;99.90
51873;DHT22;52863;52.504;13.480;2022-12-07T10:02:41;4.20;99.90
51873;DHT22;52863;52.504;13.480;2022-12-07T10:05:13;4.10;99.90
51873;DHT22;52863;52.504;13.480;2022-12-07T10:10:21;4.10;99.90
51873;DHT22;52863;52.504;13.480;2022-12-07T10:12:54;4.10;99.90
51873;DHT22;52863;52.504;13.480;2022-12-07T10:17:49;5.60;99.90
51873;DHT22;52863;52.504;13.480;2022-12-07T10:20:20;4.20;99.90
51873;DHT22;52863;52.504;13.480;2022-12-07T10:22:59;4.30;99.90
51873;DHT22;52863;52.504;13.480;2022-12-07T10:25:29;4.20;99.90
51873;DHT22;52863;52.504;13.480;2022-12-07T10:28:02;4.30;99.90
51873;DHT22;52863;52.504;13.480;2022-12-07T10:30:47;4.30;99.90
51873;DHT22;52863;52.504;13.480;2022-12-07T10:33:31;4.40;99.90
51873;DHT22;52863;52.504;13.480;2022-12-07T10:35:59;4.30;99.90
51873;DHT22;52863;52.504;13.480;2022-12-07T10:38:27;4.60;99.90
51873;DHT22;52863;52.504;13.480;2022-12-07T10:41:05;4.50;99.90
51873;DHT22;52863;52.504;13.480;2022-12-07T10:46:13;4.40;99.90
51873;DHT22;52863;52.504;13.480;2022-12-07T10:48:50;3.30;99.90
51873;DHT22;52863;52.504;13.480;2022-12-07T10:51:24;4.60;99.90
51873;DHT22;52863;52.504;13.480;2022-12-07T10:54:00;4.60;99.90
51873;DHT22;52863;52.504;13.480;2022-12-07T10:59:57;4.50;99.90
51873;DHT22;52863;52.504;13.480;2022-12-07T11:02:38;4.60;99.90
51873;DHT22;52863;52.504;13.480;2022-12-07T11:05:19;4.40;99.90
51873;DHT22;52863;52.504;13.480;2022-12-07T11:08:00;4.40;99.90
51873;DHT22;52863;52.504;13.480;2022-12-07T11:10:37;4.40;99.90
51873;DHT22;52863;52.504;13.480;2022-12-07T11:13:27;4.50;99.90
51873;DHT22;52863;52.504;13.480;2022-12-07T11:16:05;4.60;99.90
51873;DHT22;52863;52.504;13.480;2022-12-07T11:18:41;4.50;99.90
51873;DHT22;52863;52.504;13.480;2022-12-07T11:21:19;4.50;99.90
51873;DHT22;52863;52.504;13.480;2022-12-07T11:23:54;4.60;99.90
51873;DHT22;52863;52.504;13.480;2022-12-07T11:26:33;4.50;99.90
51873;DHT22;52863;52.504;13.480;2022-12-07T11:29:19;4.70;99.90
51873;DHT22;52863;52.504;13.480;2022-12-07T11:31:59;4.70;99.90
51873;DHT22;52863;52.504;13.480;2022-12-07T11:34:39;4.70;99.90
51873;DHT22;52863;52.504;13.480;2022-12-07T11:37:10;4.70;99.90
51873;DHT22;52863;52.504;13.480;2022-12-07T11:39:42;4.60;99.90
51873;DHT22;52863;52.504;13.480;2022-12-07T11:42:15;4.70;99.90
51873;DHT22;52863;52.504;13.480;2022-12-07T11:44:49;4.70;99.90
51873;DHT22;52863;52.504;13.480;2022-12-07T11:47:23;4.90;99.90
51873;DHT22;52863;52.504;13.480;2022-12-07T11:49:56;4.60;99.90
51873;DHT22;52863;52.504;13.480;2022-12-07T11:52:27;4.70;99.90
51873;DHT22;52863;52.504;13.480;2022-12-07T11:55:00;4.70;99.90
51873;DHT22;52863;52.504;13.480;2022-12-07T11:57:34;4.80;99.90
51873;DHT22;52863;52.504;13.480;2022-12-07T12:00:06;3.80;99.90
51873;DHT22;52863;52.504;13.480;2022-12-07T12:02:43;4.90;99.90
51873;DHT22;52863;52.504;13.480;2022-12-07T12:05:16;4.90;99.90
51873;DHT22;52863;52.504;13.480;2022-12-07T12:07:44;4.90;99.90
51873;DHT22;52863;52.504;13.480;2022-12-07T12:10:40;5.20;99.90
51873;DHT22;52863;52.504;13.480;2022-12-07T12:13:21;4.90;99.90
51873;DHT22;52863;52.504;13.480;2022-12-07T12:16:30;4.90;99.90
51873;DHT22;52863;52.504;13.480;2022-12-07T12:19:16;5.00;99.90
51873;DHT22;52863;52.504;13.480;2022-12-07T12:21:47;4.90;99.90
51873;DHT22;52863;52.504;13.480;2022-12-07T12:24:17;5.20;99.90
51873;DHT22;52863;52.504;13.480;2022-12-07T12:26:50;6.20;99.90
51873;DHT22;52863;52.504;13.480;2022-12-07T12:29:23;5.10;99.90
51873;DHT22;52863;52.504;13.480;2022-12-07T12:32:06;5.20;99.90
51873;DHT22;52863;52.504;13.480;2022-12-07T12:34:40;5.30;99.90
51873;DHT22;52863;52.504;13.480;2022-12-07T12:37:41;5.20;99.90
51873;DHT22;52863;52.504;13.480;2022-12-07T12:40:39;5.30;99.90
51873;DHT22;52863;52.504;13.480;2022-12-07T12:43:43;5.20;99.90
51873;DHT22;52863;52.504;13.480;2022-12-07T12:49:54;5.10;99.90
51873;DHT22;52863;52.504;13.480;2022-12-07T12:52:49;5.10;99.90
51873;DHT22;52863;52.504;13.480;2022-12-07T12:55:20;5.10;99.90
51873;DHT22;52863;52.504;13.480;2022-12-07T13:01:36;5.10;99.90
51873;DHT22;52863;52.504;13.480;2022-12-07T13:06:59;5.50;99.90
51873;DHT22;52863;52.504;13.480;2022-12-07T13:09:27;5.10;99.90
51873;DHT22;52863;52.504;13.480;2022-12-07T13:12:03;5.00;99.90
51873;DHT22;52863;52.504;13.480;2022-12-07T13:14:54;5.00;99.90
51873;DHT22;52863;52.504;13.480;2022-12-07T13:17:59;5.10;99.90
51873;DHT22;52863;52.504;13.480;2022-12-07T13:20:50;5.10;99.90
51873;DHT22;52863;52.504;13.480;2022-12-07T13:23:20;5.10;99.90
51873;DHT22;52863;52.504;13.480;2022-12-07T13:26:09;5.10;99.90
51873;DHT22;52863;52.504;13.480;2022-12-07T13:28:45;5.00;99.90
51873;DHT22;52863;52.504;13.480;2022-12-07T13:31:30;5.10;99.90
51873;DHT22;52863;52.504;13.480;2022-12-07T13:33:58;4.90;99.90
51873;DHT22;52863;52.504;13.480;2022-12-07T13:36:26;5.00;99.90
51873;DHT22;52863;52.504;13.480;2022-12-07T13:38:56;5.00;99.90
51873;DHT22;52863;52.504;13.480;2022-12-07T13:41:24;4.90;99.90
51873;DHT22;52863;52.504;13.480;2022-12-07T13:44:00;4.90;99.90
51873;DHT22;52863;52.504;13.480;2022-12-07T13:46:40;4.90;99.90
51873;DHT22;52863;52.504;13.480;2022-12-07T13:49:18;4.80;99.90
51873;DHT22;52863;52.504;13.480;2022-12-07T13:54:13;4.80;99.90
51873;DHT22;52863;52.504;13.480;2022-12-07T13:56:40;4.60;99.90
51873;DHT22;52863;52.504;13.480;2022-12-07T13:59:14;4.80;99.90
51873;DHT22;52863;52.504;13.480;2022-12-07T14:01:42;4.80;99.90
51873;DHT22;52863;52.504;13.480;2022-12-07T14:04:34;4.90;99.90
51873;DHT22;52863;52.504;13.480;2022-12-07T14:07:18;4.80;99.90
51873;DHT22;52863;52.504;13.480;2022-12-07T14:09:55;4.80;99.90
51873;DHT22;52863;52.504;13.480;2022-12-07T14:12:23;4.90;99.90
51873;DHT22;52863;52.504;13.480;2022-12-07T14:14:50;4.80;99.90
51873;DHT22;52863;52.504;13.480;2022-12-07T14:17:19;4.70;99.90
51873;DHT22;52863;52.504;13.480;2022-12-07T14:19:50;4.70;99.90
51873;DHT22;52863;52.504;13.480;2022-12-07T14:22:33;4.60;99.90
51873;DHT22;52863;52.504;13.480;2022-12-07T14:25:15;4.50;99.90
51873;DHT22;52863;52.504;13.480;2022-12-07T14:27:50;4.90;99.90
51873;DHT22;52863;52.504;13.480;2022-12-07T14:30:18;4.70;99.90
51873;DHT22;52863;52.504;13.480;2022-12-07T14:35:16;4.70;99.90
51873;DHT22;52863;52.504;13.480;2022-12-07T14:37:44;4.50;99.90
51873;DHT22;52863;52.504;13.480;2022-12-07T14:40:14;4.50;99.90
51873;DHT22;52863;52.504;13.480;2022-12-07T14:42:42;4.40;99.90
51873;DHT22;52863;52.504;13.480;2022-12-07T14:45:13;4.40;99.90
51873;DHT22;52863;52.504;13.480;2022-12-07T14:52:56;4.00;99.90
51873;DHT22;52863;52.504;13.480;2022-12-07T14:55:45;4.20;99.90
51873;DHT22;52863;52.504;13.480;2022-12-07T14:58:14;4.10;99.90
51873;DHT22;52863;52.504;13.480;2022-12-07T15:03:08;4.20;99.90
51873;DHT22;52863;52.504;13.480;2022-12-07T15:08:02;3.90;99.90
51873;DHT22;52863;52.504;13.480;2022-12-07T15:10:31;3.90;99.90
51873;DHT22;52863;52.504;13.480;2022-12-07T15:13:00;3.80;99.90
51873;DHT22;52863;52.504;13.480;2022-12-07T15:15:52;3.80;99.90
51873;DHT22;52863;52.504;13.480;2022-12-07T15:18:19;3.70;99.90
51873;DHT22;52863;52.504;13.480;2022-12-07T15:20:47;3.60;99.90
51873;DHT22;52863;52.504;13.480;2022-12-07T15:25:41;3.80;99.90
51873;DHT22;52863;52.504;13.480;2022-12-07T15:28:09;3.50;99.90
51873;DHT22;52863;52.504;13.480;2022-12-07T15:30:37;3.50;99.90
51873;DHT22;52863;52.504;13.480;2022-12-07T15:37:57;3.30;99.90
51873;DHT22;52863;52.504;13.480;2022-12-07T15:45:55;3.30;99.90
51873;DHT22;52863;52.504;13.480;2022-12-07T15:51:05;3.30;99.90
51873;DHT22;52863;52.504;13.480;2022-12-07T16:20:05;3.50;99.90
51873;DHT22;52863;52.504;13.480;2022-12-07T16:24:59;3.60;99.90
51873;DHT22;52863;52.504;13.480;2022-12-07T16:29:53;3.30;99.90
51873;DHT22;52863;52.504;13.480;2022-12-07T16:32:20;3.40;99.90
51873;DHT22;52863;52.504;13.480;2022-12-07T16:34:47;3.30;99.90
51873;DHT22;52863;52.504;13.480;2022-12-07T16:37:14;3.00;99.90
51873;DHT22;52863;52.504;13.480;2022-12-07T16:39:42;3.60;99.90
51873;DHT22;52863;52.504;13.480;2022-12-07T16:42:09;3.30;99.90
51873;DHT22;52863;52.504;13.480;2022-12-07T16:47:02;3.60;99.90
51873;DHT22;52863;52.504;13.480;2022-12-07T16:49:29;3.10;99.90
51873;DHT22;52863;52.504;13.480;2022-12-07T16:51:57;3.50;99.90
51873;DHT22;52863;52.504;13.480;2022-12-07T16:54:44;3.30;99.90
51873;DHT22;52863;52.504;13.480;2022-12-07T16:57:11;3.30;99.90
51873;DHT22;52863;52.504;13.480;2022-12-07T16:59:44;2.90;99.90
51873;DHT22;52863;52.504;13.480;2022-12-07T17:02:12;3.00;99.90
51873;DHT22;52863;52.504;13.480;2022-12-07T17:04:39;3.00;99.90
51873;DHT22;52863;52.504;13.480;2022-12-07T17:07:09;3.00;99.90
51873;DHT22;52863;52.504;13.480;2022-12-07T17:09:36;3.10;99.90
51873;DHT22;52863;52.504;13.480;2022-12-07T17:12:03;2.90;99.90
51873;DHT22;52863;52.504;13.480;2022-12-07T17:17:16;2.90;99.90
51873;DHT22;52863;52.504;13.480;2022-12-07T17:19:43;2.90;99.90
51873;DHT22;52863;52.504;13.480;2022-12-07T17:22:11;2.70;99.90
51873;DHT22;52863;52.504;13.480;2022-12-07T17:24:38;2.60;99.90
51873;DHT22;52863;52.504;13.480;2022-12-07T17:27:05;2.60;99.90
51873;DHT22;52863;52.504;13.480;2022-12-07T17:31:59;2.70;99.90
51873;DHT22;52863;52.504;13.480;2022-12-07T17:34:26;2.40;99.90
51873;DHT22;52863;52.504;13.480;2022-12-07T17:36:56;2.60;99.90
51873;DHT22;52863;52.504;13.480;2022-12-07T17:39:24;2.70;99.90
51873;DHT22;52863;52.504;13.480;2022-12-07T17:44:36;2.50;99.90
51873;DHT22;52863;52.504;13.480;2022-12-07T17:47:04;2.30;99.90
51873;DHT22;52863;52.504;13.480;2022-12-07T17:50:16;2.30;99.90
51873;DHT22;52863;52.504;13.480;2022-12-07T17:53:03;2.30;99.90
51873;DHT22;52863;52.504;13.480;2022-12-07T17:55:38;2.20;99.90
51873;DHT22;52863;52.504;13.480;2022-12-07T17:58:25;2.20;99.90
51873;DHT22;52863;52.504;13.480;2022-12-07T18:00:51;2.40;99.90
51873;DHT22;52863;52.504;13.480;2022-12-07T18:03:18;2.40;99.90
51873;DHT22;52863;52.504;13.480;2022-12-07T18:05:45;2.10;99.90
51873;DHT22;52863;52.504;13.480;2022-12-07T18:08:13;2.30;99.90
51873;DHT22;52863;52.504;13.480;2022-12-07T18:10:41;2.20;99.90
51873;DHT22;52863;52.504;13.480;2022-12-07T18:13:08;2.20;99.90
51873;DHT22;52863;52.504;13.480;2022-12-07T18:15:56;2.00;99.90
51873;DHT22;52863;52.504;13.480;2022-12-07T18:20:50;2.20;99.90
51873;DHT22;52863;52.504;13.480;2022-12-07T18:23:17;2.10;99.90
51873;DHT22;52863;52.504;13.480;2022-12-07T18:25:47;1.80;99.90
51873;DHT22;52863;52.504;13.480;2022-12-07T18:28:15;1.80;99.90
51873;DHT22;52863;52.504;13.480;2022-12-07T18:30:42;2.00;99.90
51873;DHT22;52863;52.504;13.480;2022-12-07T18:33:35;2.20;99.90
51873;DHT22;52863;52.504;13.480;2022-12-07T18:36:03;2.00;99.90
51873;DHT22;52863;52.504;13.480;2022-12-07T18:38:32;2.00;99.90
51873;DHT22;52863;52.504;13.480;2022-12-07T18:40:59;1.90;99.90
51873;DHT22;52863;52.504;13.480;2022-12-07T18:45:54;1.90;99.90
51873;DHT22;52863;52.504;13.480;2022-12-07T18:48:22;1.90;99.90
51873;DHT22;52863;52.504;13.480;2022-12-07T18:50:59;1.80;99.90
51873;DHT22;52863;52.504;13.480;2022-12-07T18:56:01;1.80;99.90
51873;DHT22;52863;52.504;13.480;2022-12-07T18:58:28;1.70;99.90
51873;DHT22;52863;52.504;13.480;2022-12-07T19:03:22;1.50;99.90
51873;DHT22;52863;52.504;13.480;2022-12-07T19:05:56;1.70;99.90
51873;DHT22;52863;52.504;13.480;2022-12-07T19:13:18;1.60;99.90
51873;DHT22;52863;52.504;13.480;2022-12-07T19:18:12;1.60;99.90
51873;DHT22;52863;52.504;13.480;2022-12-07T19:20:38;1.60;99.90
51873;DHT22;52863;52.504;13.480;2022-12-07T19:33:04;1.80;99.90
51873;DHT22;52863;52.504;13.480;2022-12-07T19:35:33;1.50;99.90
51873;DHT22;52863;52.504;13.480;2022-12-07T19:43:05;4.60;99.90
51873;DHT22;52863;52.504;13.480;2022-12-07T19:45:36;1.30;99.90
51873;DHT22;52863;52.504;13.480;2022-12-07T19:48:24;1.40;99.90
51873;DHT22;52863;52.504;13.480;2022-12-07T19:54:38;1.30;99.90
51873;DHT22;52863;52.504;13.480;2022-12-07T19:57:51;1.30;99.90
51873;DHT22;52863;52.504;13.480;2022-12-07T20:05:00;1.30;99.90
51873;DHT22;52863;52.504;13.480;2022-12-07T20:11:49;1.20;99.90
51873;DHT22;52863;52.504;13.480;2022-12-07T20:17:19;1.30;99.90
51873;DHT22;52863;52.504;13.480;2022-12-07T20:19:50;1.30;99.90
51873;DHT22;52863;52.504;13.480;2022-12-07T20:22:23;1.30;99.90
51873;DHT22;52863;52.504;13.480;2022-12-07T20:34:45;1.20;99.90
51873;DHT22;52863;52.504;13.480;2022-12-07T20:54:56;1.40;99.90
51873;DHT22;52863;52.504;13.480;2022-12-07T21:02:20;1.30;99.90
51873;DHT22;52863;52.504;13.480;2022-12-07T21:07:17;1.30;99.90
51873;DHT22;52863;52.504;13.480;2022-12-07T21:09:44;1.30;99.90
51873;DHT22;52863;52.504;13.480;2022-12-07T21:12:12;1.30;99.90
51873;DHT22;52863;52.504;13.480;2022-12-07T21:14:39;1.50;99.90
51873;DHT22;52863;52.504;13.480;2022-12-07T21:26:54;1.20;99.90
51873;DHT22;52863;52.504;13.480;2022-12-07T21:29:22;1.20;99.90
51873;DHT22;52863;52.504;13.480;2022-12-07T21:32:08;1.20;99.90
51873;DHT22;52863;52.504;13.480;2022-12-07T21:37:02;1.20;99.90
51873;DHT22;52863;52.504;13.480;2022-12-07T21:44:23;1.30;99.90
51873;DHT22;52863;52.504;13.480;2022-12-07T21:49:18;1.60;99.90
51873;DHT22;52863;52.504;13.480;2022-12-07T21:51:44;1.50;99.90
51873;DHT22;52863;52.504;13.480;2022-12-07T21:56:39;1.50;99.90
51873;DHT22;52863;52.504;13.480;2022-12-07T21:59:09;1.50;99.90
51873;DHT22;52863;52.504;13.480;2022-12-07T22:01:38;1.50;99.90
51873;DHT22;52863;52.504;13.480;2022-12-07T22:04:06;1.50;99.90
51873;DHT22;52863;52.504;13.480;2022-12-07T22:06:35;-0.50;99.90
51873;DHT22;52863;52.504;13.480;2022-12-07T22:09:02;1.50;99.90
51873;DHT22;52863;52.504;13.480;2022-12-07T22:11:29;1.40;99.90
51873;DHT22;52863;52.504;13.480;2022-12-07T22:13:55;1.50;99.90
51873;DHT22;52863;52.504;13.480;2022-12-07T22:16:41;1.50;99.90
51873;DHT22;52863;52.504;13.480;2022-12-07T22:21:35;1.50;99.90
51873;DHT22;52863;52.504;13.480;2022-12-07T22:24:01;0.70;99.90
51873;DHT22;52863;52.504;13.480;2022-12-07T22:26:28;1.20;99.90
51873;DHT22;52863;52.504;13.480;2022-12-07T22:33:49;1.20;99.90
51873;DHT22;52863;52.504;13.480;2022-12-07T22:36:17;1.20;99.90
51873;DHT22;52863;52.504;13.480;2022-12-07T22:38:44;1.20;99.90
51873;DHT22;52863;52.504;13.480;2022-12-07T22:41:13;1.20;99.90
51873;DHT22;52863;52.504;13.480;2022-12-07T22:46:08;1.10;99.90
51873;DHT22;52863;52.504;13.480;2022-12-07T22:51:06;1.10;99.90
51873;DHT22;52863;52.504;13.480;2022-12-07T22:53:33;1.00;99.90
51873;DHT22;52863;52.504;13.480;2022-12-07T23:03:21;0.90;99.90
51873;DHT22;52863;52.504;13.480;2022-12-07T23:05:48;1.00;99.90
51873;DHT22;52863;52.504;13.480;2022-12-07T23:08:16;1.10;99.90
51873;DHT22;52863;52.504;13.480;2022-12-07T23:10:44;0.90;99.90
51873;DHT22;52863;52.504;13.480;2022-12-07T23:13:12;1.20;99.90
51873;DHT22;52863;52.504;13.480;2022-12-07T23:20:55;0.90;99.90
51873;DHT22;52863;52.504;13.480;2022-12-07T23:23:22;0.70;99.90
51873;DHT22;52863;52.504;13.480;2022-12-07T23:25:49;-0.10;99.90
51873;DHT22;52863;52.504;13.480;2022-12-07T23:38:03;0.80;99.90
51873;DHT22;52863;52.504;13.480;2022-12-07T23:40:30;0.90;99.90
51873;DHT22;52863;52.504;13.480;2022-12-07T23:52:45;1.00;99.90
51873;DHT22;52863;52.504;13.480;2022-12-07T23:57:39;1.00;99.90
